createdAt,value
2018-09-23T00:00:12.848Z,13.50
2018-09-23T00:05:08.148Z,13.50
2018-09-23T00:10:05.203Z,13.40
2018-09-23T00:15:00.556Z,13.20
2018-09-23T00:19:55.819Z,13.30
2018-09-23T00:24:50.984Z,13.30
2018-09-23T00:29:52.235Z,13.30
2018-09-23T00:34:48.702Z,13.30
2018-09-23T00:39:43.890Z,13.30
2018-09-23T00:44:39.133Z,13.30
2018-09-23T00:49:34.328Z,13.40
2018-09-23T00:54:29.533Z,13.50
2018-09-23T00:59:24.690Z,13.50
2018-09-23T01:04:19.814Z,13.50
2018-09-23T01:09:15.048Z,13.40
2018-09-23T01:14:10.172Z,13.50
2018-09-23T01:19:05.340Z,13.40
2018-09-23T01:24:00.422Z,13.40
2018-09-23T01:28:55.609Z,13.50
2018-09-23T01:33:50.916Z,13.60
2018-09-23T01:38:46.125Z,13.50
2018-09-23T01:43:41.290Z,13.60
2018-09-23T01:48:36.468Z,13.50
2018-09-23T01:53:31.625Z,13.50
2018-09-23T01:58:26.742Z,13.50
2018-09-23T02:03:21.877Z,13.50
2018-09-23T02:08:17.133Z,13.60
2018-09-23T02:13:12.308Z,13.60
2018-09-23T02:18:07.469Z,13.70
2018-09-23T02:23:02.672Z,13.70
2018-09-23T02:27:57.854Z,13.70
2018-09-23T02:32:53.087Z,13.70
2018-09-23T02:37:48.183Z,13.70
2018-09-23T02:42:43.360Z,13.80
2018-09-23T02:47:38.525Z,13.80
2018-09-23T02:52:33.682Z,13.80
2018-09-23T02:57:28.813Z,13.90
2018-09-23T03:02:24.030Z,13.80
2018-09-23T03:07:19.233Z,13.80
2018-09-23T03:12:14.370Z,13.80
2018-09-23T03:17:09.549Z,13.90
2018-09-23T03:22:04.758Z,13.90
2018-09-23T03:26:59.950Z,13.90
2018-09-23T03:31:55.114Z,13.90
2018-09-23T03:36:50.244Z,13.90
2018-09-23T03:41:45.948Z,13.90
2018-09-23T03:46:41.110Z,13.90
2018-09-23T03:51:36.366Z,14.00
2018-09-23T03:56:31.671Z,14.00
2018-09-23T04:01:26.861Z,13.90
2018-09-23T04:06:22.122Z,13.90
2018-09-23T04:11:17.346Z,13.90
2018-09-23T04:16:12.479Z,14.00
2018-09-23T04:21:07.686Z,14.00
2018-09-23T04:26:02.977Z,14.00
2018-09-23T04:30:58.222Z,14.00
2018-09-23T04:35:53.403Z,13.90
2018-09-23T04:40:48.668Z,13.90
2018-09-23T04:45:44.334Z,13.90
2018-09-23T04:50:39.452Z,13.90
2018-09-23T04:55:34.571Z,13.90
2018-09-23T05:00:29.770Z,13.80
2018-09-23T05:05:24.894Z,13.80
2018-09-23T05:10:20.022Z,13.80
2018-09-23T05:15:15.133Z,13.90
2018-09-23T05:20:10.179Z,13.80
2018-09-23T05:25:05.306Z,13.80
2018-09-23T05:30:00.366Z,13.80
2018-09-23T05:34:55.384Z,13.80
2018-09-23T05:39:50.558Z,13.90
2018-09-23T05:44:45.682Z,14.00
2018-09-23T05:49:40.829Z,14.10
2018-09-23T05:54:35.830Z,14.10
2018-09-23T05:59:30.884Z,14.10
2018-09-23T06:04:25.961Z,14.20
2018-09-23T06:09:21.110Z,14.30
2018-09-23T06:14:16.095Z,14.30
2018-09-23T06:19:11.209Z,14.30
2018-09-23T06:24:06.302Z,14.40
2018-09-23T06:29:01.536Z,14.50
2018-09-23T06:33:56.740Z,14.60
2018-09-23T06:38:52.060Z,14.70
2018-09-23T06:43:47.124Z,14.80
2018-09-23T06:48:42.296Z,14.90
2018-09-23T06:53:37.483Z,14.90
2018-09-23T06:58:32.548Z,14.90
2018-09-23T07:03:27.591Z,15.00
2018-09-23T07:08:22.649Z,15.10
2018-09-23T07:13:17.727Z,15.10
2018-09-23T07:18:12.838Z,15.10
2018-09-23T07:23:07.903Z,15.20
2018-09-23T07:28:03.098Z,15.40
2018-09-23T07:32:58.208Z,15.50
2018-09-23T07:37:53.557Z,15.70
2018-09-23T07:42:48.670Z,15.70
2018-09-23T07:47:43.690Z,15.80
2018-09-23T07:52:38.839Z,15.80
2018-09-23T07:57:33.880Z,15.80
2018-09-23T08:02:28.946Z,15.80
2018-09-23T08:07:24.070Z,15.90
2018-09-23T08:12:19.220Z,16.00
2018-09-23T08:17:14.416Z,16.30
2018-09-23T08:22:09.930Z,16.50
2018-09-23T08:27:05.047Z,16.50
2018-09-23T08:32:00.147Z,16.60
2018-09-23T08:36:55.190Z,16.70
2018-09-23T08:41:50.375Z,17.00
2018-09-23T08:46:46.375Z,17.20
2018-09-23T08:51:41.693Z,17.40
2018-09-23T08:56:37.676Z,17.70
2018-09-23T09:01:32.798Z,17.80
2018-09-23T09:06:27.849Z,17.80
2018-09-23T09:11:22.851Z,17.90
2018-09-23T09:16:17.858Z,18.00
2018-09-23T09:21:12.818Z,18.40
2018-09-23T09:26:07.797Z,18.70
2018-09-23T09:31:02.829Z,18.80
2018-09-23T09:35:57.751Z,19.00
2018-09-23T09:40:52.684Z,19.10
2018-09-23T09:45:49.107Z,19.10
2018-09-23T09:50:44.147Z,19.10
2018-09-23T09:55:39.418Z,19.50
2018-09-23T10:00:36.100Z,20.70
2018-09-23T10:05:31.099Z,21.60
2018-09-23T10:10:26.145Z,22.20
2018-09-23T10:15:21.266Z,22.70
2018-09-23T10:20:16.245Z,22.80
2018-09-23T10:25:11.288Z,22.70
2018-09-23T10:30:07.584Z,22.50
2018-09-23T10:35:02.440Z,22.60
2018-09-23T10:39:57.265Z,22.70
2018-09-23T10:44:52.119Z,22.70
2018-09-23T10:49:46.971Z,22.70
2018-09-23T10:54:41.825Z,22.80
2018-09-23T10:59:37.675Z,22.50
2018-09-23T11:04:32.570Z,22.50
2018-09-23T11:09:27.542Z,22.90
2018-09-23T11:14:22.481Z,23.10
2018-09-23T11:19:17.383Z,23.00
2018-09-23T11:24:12.411Z,22.70
2018-09-23T11:29:07.356Z,22.80
2018-09-23T11:34:02.285Z,23.00
2018-09-23T11:38:57.243Z,22.80
2018-09-23T11:43:52.185Z,22.80
2018-09-23T11:48:47.945Z,23.10
2018-09-23T11:53:42.880Z,23.80
2018-09-23T11:58:37.877Z,24.50
2018-09-23T12:03:32.884Z,24.90
2018-09-23T12:08:28.506Z,24.90
2018-09-23T12:13:24.730Z,25.10
2018-09-23T12:18:20.569Z,25.10
2018-09-23T12:23:15.723Z,25.20
2018-09-23T12:28:10.706Z,25.20
2018-09-23T12:33:05.683Z,25.20
2018-09-23T12:38:00.638Z,24.90
2018-09-23T12:42:55.523Z,24.90
2018-09-23T12:47:50.778Z,24.80
2018-09-23T12:52:45.626Z,24.60
2018-09-23T12:57:42.496Z,24.50
2018-09-23T13:02:39.125Z,24.50
2018-09-23T13:07:33.907Z,24.60
2018-09-23T13:12:28.760Z,24.70
2018-09-23T13:17:23.534Z,25.00
2018-09-23T13:22:18.448Z,25.30
2018-09-23T13:27:13.256Z,25.20
2018-09-23T13:32:08.245Z,25.20
2018-09-23T13:37:03.100Z,25.10
2018-09-23T13:41:58.123Z,25.00
2018-09-23T13:46:53.062Z,25.00
2018-09-23T13:51:48.147Z,25.10
2018-09-23T13:56:43.118Z,25.20
2018-09-23T14:01:38.041Z,25.10
2018-09-23T14:06:32.998Z,25.10
2018-09-23T14:11:27.836Z,25.10
2018-09-23T14:16:22.593Z,25.10
2018-09-23T14:21:17.462Z,25.00
2018-09-23T14:26:12.567Z,25.00
2018-09-23T14:31:07.565Z,25.10
2018-09-23T14:36:02.490Z,25.10
2018-09-23T14:41:00.221Z,25.00
2018-09-23T14:45:55.186Z,24.90
2018-09-23T14:50:49.734Z,24.80
2018-09-23T14:55:44.789Z,24.80
2018-09-23T15:00:39.619Z,24.60
2018-09-23T15:05:34.504Z,24.30
2018-09-23T15:10:29.474Z,24.20
2018-09-23T15:15:24.272Z,24.10
2018-09-23T15:20:18.966Z,24.00
2018-09-23T15:25:13.732Z,24.00
2018-09-23T15:30:08.429Z,24.10
2018-09-23T15:35:03.434Z,24.10
2018-09-23T15:39:58.129Z,24.00
2018-09-23T15:44:52.841Z,24.00
2018-09-23T15:49:47.589Z,23.80
2018-09-23T15:54:42.261Z,23.70
2018-09-23T15:59:36.848Z,23.50
2018-09-23T16:04:31.483Z,23.30
2018-09-23T16:09:26.072Z,23.20
2018-09-23T16:14:20.646Z,23.10
2018-09-23T16:19:15.611Z,23.10
2018-09-23T16:24:10.549Z,23.00
2018-09-23T16:29:05.467Z,23.00
2018-09-23T16:34:00.545Z,22.90
2018-09-23T16:43:59.414Z,22.80
2018-09-23T16:48:54.493Z,22.70
2018-09-23T16:53:49.450Z,22.60
2018-09-23T16:58:44.344Z,22.50
2018-09-23T17:03:39.472Z,22.40
2018-09-23T17:08:34.441Z,22.30
2018-09-23T17:13:29.470Z,22.30
2018-09-23T17:18:24.458Z,22.20
2018-09-23T17:23:19.338Z,22.00
2018-09-23T17:28:14.242Z,22.00
2018-09-23T17:33:09.170Z,22.00
2018-09-23T17:38:04.254Z,21.90
2018-09-23T17:42:59.124Z,21.90
2018-09-23T17:47:54.134Z,21.90
2018-09-23T17:52:49.525Z,21.90
2018-09-23T17:57:44.930Z,22.00
2018-09-23T18:02:39.889Z,22.20
2018-09-23T18:07:34.813Z,22.20
2018-09-23T18:12:29.780Z,22.30
2018-09-23T18:17:24.773Z,22.50
2018-09-23T18:22:19.781Z,22.50
2018-09-23T18:27:14.688Z,22.60
2018-09-23T18:32:09.601Z,22.60
2018-09-23T18:37:04.966Z,22.60
2018-09-23T18:42:00.301Z,22.70
2018-09-23T18:46:56.198Z,22.70
2018-09-23T18:51:52.451Z,22.70
2018-09-23T18:56:48.721Z,22.60
2018-09-23T19:01:45.187Z,22.30
2018-09-23T19:06:41.714Z,22.20
2018-09-23T19:11:39.071Z,21.50
2018-09-23T19:16:36.243Z,19.30
2018-09-23T19:21:33.053Z,17.10
2018-09-23T19:26:30.913Z,16.40
2018-09-23T19:31:27.264Z,16.00
2018-09-23T19:36:23.724Z,15.80
2018-09-23T19:41:19.961Z,15.60
2018-09-23T19:46:15.958Z,15.60
2018-09-23T19:51:11.424Z,15.60
2018-09-23T19:56:06.353Z,15.50
2018-09-23T20:01:01.317Z,15.50
2018-09-23T20:05:56.363Z,15.40
2018-09-23T20:10:51.406Z,15.40
2018-09-23T20:15:46.517Z,15.00
2018-09-23T20:20:41.442Z,15.00
2018-09-23T20:25:36.465Z,15.10
2018-09-23T20:30:31.419Z,15.10
2018-09-23T20:35:27.185Z,14.90
2018-09-23T20:40:22.209Z,14.80
2018-09-23T20:45:17.102Z,14.70
2018-09-23T20:50:12.053Z,14.60
2018-09-23T20:55:06.941Z,14.30
2018-09-23T21:00:01.955Z,14.20
2018-09-23T21:04:56.802Z,14.30
2018-09-23T21:09:51.609Z,14.30
2018-09-23T21:14:46.440Z,14.20
2018-09-23T21:19:41.270Z,14.10
2018-09-23T21:24:36.108Z,14.00
2018-09-23T21:29:30.969Z,14.00
2018-09-23T21:34:26.002Z,14.20
2018-09-23T21:39:20.789Z,14.10
2018-09-23T21:44:15.578Z,14.00
2018-09-23T21:49:10.554Z,14.10
2018-09-23T21:54:05.372Z,14.00
2018-09-23T21:59:00.196Z,14.10
2018-09-23T22:03:54.956Z,14.00
2018-09-23T22:08:49.805Z,13.90
2018-09-23T22:13:44.677Z,13.80
2018-09-23T22:18:39.556Z,13.90
2018-09-23T22:23:34.373Z,13.90
2018-09-23T22:28:29.504Z,13.90
2018-09-23T22:33:24.580Z,13.90
2018-09-23T22:38:19.658Z,13.80
2018-09-23T22:43:14.521Z,13.60
2018-09-23T22:48:09.418Z,13.70
2018-09-23T22:53:04.320Z,13.70
2018-09-23T22:57:59.190Z,13.90
2018-09-23T23:02:54.098Z,13.80
2018-09-23T23:07:48.970Z,13.70
2018-09-23T23:12:43.892Z,13.60
2018-09-23T23:17:38.838Z,13.30
2018-09-23T23:22:33.725Z,13.30
2018-09-23T23:27:28.602Z,13.30
2018-09-23T23:32:23.475Z,13.10
2018-09-23T23:37:18.326Z,13.10
2018-09-23T23:42:13.215Z,13.20
2018-09-23T23:47:08.330Z,13.00
2018-09-23T23:52:03.252Z,13.20
2018-09-23T23:56:58.139Z,13.10
